sensor_id;sensor_type;location;lat;lon;timestamp;P1;durP1;ratioP1;P2;durP2;ratioP2
8230;SDS011;4156;50.908;6.974;2023-03-12T00:00:49;6.10;;;3.53;;
8230;SDS011;4156;50.908;6.974;2023-03-12T00:03:15;4.93;;;3.23;;
8230;SDS011;4156;50.908;6.974;2023-03-12T00:05:41;6.17;;;3.23;;
8230;SDS011;4156;50.908;6.974;2023-03-12T00:08:08;4.00;;;2.73;;
8230;SDS011;4156;50.908;6.974;2023-03-12T00:10:34;5.30;;;3.00;;
8230;SDS011;4156;50.908;6.974;2023-03-12T00:13:02;4.80;;;2.87;;
8230;SDS011;4156;50.908;6.974;2023-03-12T00:15:27;4.93;;;2.70;;
8230;SDS011;4156;50.908;6.974;2023-03-12T00:17:53;5.63;;;3.23;;
8230;SDS011;4156;50.908;6.974;2023-03-12T00:20:19;4.50;;;3.50;;
8230;SDS011;4156;50.908;6.974;2023-03-12T00:22:45;5.57;;;3.07;;
8230;SDS011;4156;50.908;6.974;2023-03-12T00:25:12;6.97;;;3.27;;
8230;SDS011;4156;50.908;6.974;2023-03-12T00:27:39;4.13;;;2.93;;
8230;SDS011;4156;50.908;6.974;2023-03-12T00:30:05;4.13;;;3.07;;
8230;SDS011;4156;50.908;6.974;2023-03-12T00:32:32;4.93;;;3.20;;
8230;SDS011;4156;50.908;6.974;2023-03-12T00:34:57;6.17;;;2.90;;
8230;SDS011;4156;50.908;6.974;2023-03-12T00:37:23;5.80;;;3.27;;
8230;SDS011;4156;50.908;6.974;2023-03-12T00:39:49;5.23;;;3.70;;
8230;SDS011;4156;50.908;6.974;2023-03-12T00:42:14;6.73;;;3.17;;
8230;SDS011;4156;50.908;6.974;2023-03-12T00:44:40;4.57;;;3.27;;
8230;SDS011;4156;50.908;6.974;2023-03-12T00:47:05;7.53;;;3.73;;
8230;SDS011;4156;50.908;6.974;2023-03-12T00:49:31;5.63;;;3.10;;
8230;SDS011;4156;50.908;6.974;2023-03-12T00:51:57;6.33;;;3.23;;
8230;SDS011;4156;50.908;6.974;2023-03-12T00:54:22;5.67;;;2.80;;
8230;SDS011;4156;50.908;6.974;2023-03-12T00:56:48;4.43;;;2.87;;
8230;SDS011;4156;50.908;6.974;2023-03-12T00:59:14;5.70;;;2.90;;
8230;SDS011;4156;50.908;6.974;2023-03-12T01:01:40;8.07;;;3.50;;
8230;SDS011;4156;50.908;6.974;2023-03-12T01:04:06;5.23;;;3.20;;
8230;SDS011;4156;50.908;6.974;2023-03-12T01:06:31;5.80;;;2.83;;
8230;SDS011;4156;50.908;6.974;2023-03-12T01:08:57;5.77;;;3.10;;
8230;SDS011;4156;50.908;6.974;2023-03-12T01:11:23;4.97;;;3.00;;
8230;SDS011;4156;50.908;6.974;2023-03-12T01:13:49;5.17;;;3.20;;
8230;SDS011;4156;50.908;6.974;2023-03-12T01:16:15;5.50;;;3.10;;
8230;SDS011;4156;50.908;6.974;2023-03-12T01:18:40;4.63;;;2.90;;
8230;SDS011;4156;50.908;6.974;2023-03-12T01:21:06;5.80;;;2.73;;
8230;SDS011;4156;50.908;6.974;2023-03-12T01:23:31;9.37;;;3.40;;
8230;SDS011;4156;50.908;6.974;2023-03-12T01:25:57;4.53;;;3.00;;
8230;SDS011;4156;50.908;6.974;2023-03-12T01:28:23;4.90;;;2.60;;
8230;SDS011;4156;50.908;6.974;2023-03-12T01:30:49;4.27;;;3.10;;
8230;SDS011;4156;50.908;6.974;2023-03-12T01:33:15;5.50;;;3.13;;
8230;SDS011;4156;50.908;6.974;2023-03-12T01:35:42;6.77;;;2.90;;
8230;SDS011;4156;50.908;6.974;2023-03-12T01:38:08;6.37;;;2.83;;
8230;SDS011;4156;50.908;6.974;2023-03-12T01:40:37;4.80;;;3.00;;
8230;SDS011;4156;50.908;6.974;2023-03-12T01:43:23;5.53;;;2.97;;
8230;SDS011;4156;50.908;6.974;2023-03-12T01:46:08;6.33;;;2.80;;
8230;SDS011;4156;50.908;6.974;2023-03-12T01:51:30;5.77;;;3.40;;
8230;SDS011;4156;50.908;6.974;2023-03-12T01:54:00;4.40;;;3.07;;
8230;SDS011;4156;50.908;6.974;2023-03-12T01:56:29;6.20;;;2.83;;
8230;SDS011;4156;50.908;6.974;2023-03-12T01:58:59;7.40;;;3.57;;
8230;SDS011;4156;50.908;6.974;2023-03-12T02:01:28;5.40;;;3.03;;
8230;SDS011;4156;50.908;6.974;2023-03-12T02:03:54;5.30;;;2.90;;
8230;SDS011;4156;50.908;6.974;2023-03-12T02:06:24;4.70;;;2.60;;
8230;SDS011;4156;50.908;6.974;2023-03-12T02:09:00;7.37;;;3.10;;
8230;SDS011;4156;50.908;6.974;2023-03-12T02:11:28;4.47;;;2.90;;
8230;SDS011;4156;50.908;6.974;2023-03-12T02:13:54;4.47;;;2.47;;
8230;SDS011;4156;50.908;6.974;2023-03-12T02:16:19;6.13;;;2.77;;
8230;SDS011;4156;50.908;6.974;2023-03-12T02:18:45;7.40;;;3.10;;
8230;SDS011;4156;50.908;6.974;2023-03-12T02:21:23;5.80;;;3.00;;
8230;SDS011;4156;50.908;6.974;2023-03-12T02:26:20;5.40;;;3.10;;
8230;SDS011;4156;50.908;6.974;2023-03-12T02:28:46;6.60;;;2.70;;
8230;SDS011;4156;50.908;6.974;2023-03-12T02:31:18;5.23;;;2.70;;
8230;SDS011;4156;50.908;6.974;2023-03-12T02:33:46;4.20;;;2.80;;
8230;SDS011;4156;50.908;6.974;2023-03-12T02:36:12;5.50;;;3.00;;
8230;SDS011;4156;50.908;6.974;2023-03-12T02:41:09;7.10;;;3.00;;
8230;SDS011;4156;50.908;6.974;2023-03-12T02:43:35;5.70;;;2.87;;
8230;SDS011;4156;50.908;6.974;2023-03-12T02:46:01;3.70;;;2.53;;
8230;SDS011;4156;50.908;6.974;2023-03-12T02:48:26;4.53;;;2.43;;
8230;SDS011;4156;50.908;6.974;2023-03-12T02:50:52;5.23;;;2.60;;
8230;SDS011;4156;50.908;6.974;2023-03-12T02:53:17;4.67;;;2.67;;
8230;SDS011;4156;50.908;6.974;2023-03-12T02:55:43;3.07;;;2.53;;
8230;SDS011;4156;50.908;6.974;2023-03-12T02:58:08;7.53;;;2.80;;
8230;SDS011;4156;50.908;6.974;2023-03-12T03:00:34;5.23;;;2.63;;
8230;SDS011;4156;50.908;6.974;2023-03-12T03:03:00;4.83;;;2.97;;
8230;SDS011;4156;50.908;6.974;2023-03-12T03:05:26;3.97;;;2.50;;
8230;SDS011;4156;50.908;6.974;2023-03-12T03:07:51;5.60;;;2.43;;
8230;SDS011;4156;50.908;6.974;2023-03-12T03:10:17;5.03;;;2.80;;
8230;SDS011;4156;50.908;6.974;2023-03-12T03:12:43;5.23;;;2.73;;
8230;SDS011;4156;50.908;6.974;2023-03-12T03:15:09;7.10;;;3.00;;
8230;SDS011;4156;50.908;6.974;2023-03-12T03:17:35;7.13;;;2.70;;
8230;SDS011;4156;50.908;6.974;2023-03-12T03:20:00;6.03;;;2.70;;
8230;SDS011;4156;50.908;6.974;2023-03-12T03:22:28;4.30;;;2.70;;
8230;SDS011;4156;50.908;6.974;2023-03-12T03:24:53;4.90;;;2.70;;
8230;SDS011;4156;50.908;6.974;2023-03-12T03:27:19;4.17;;;2.63;;
8230;SDS011;4156;50.908;6.974;2023-03-12T03:29:44;5.00;;;2.97;;
8230;SDS011;4156;50.908;6.974;2023-03-12T03:32:11;4.30;;;2.80;;
8230;SDS011;4156;50.908;6.974;2023-03-12T03:34:38;5.37;;;2.70;;
8230;SDS011;4156;50.908;6.974;2023-03-12T03:37:03;5.53;;;3.00;;
8230;SDS011;4156;50.908;6.974;2023-03-12T03:39:29;3.97;;;2.73;;
8230;SDS011;4156;50.908;6.974;2023-03-12T03:41:55;3.63;;;2.57;;
8230;SDS011;4156;50.908;6.974;2023-03-12T03:44:20;3.63;;;2.00;;
8230;SDS011;4156;50.908;6.974;2023-03-12T03:46:47;5.10;;;2.70;;
8230;SDS011;4156;50.908;6.974;2023-03-12T03:49:13;3.33;;;2.10;;
8230;SDS011;4156;50.908;6.974;2023-03-12T03:51:39;9.53;;;3.10;;
8230;SDS011;4156;50.908;6.974;2023-03-12T03:54:06;4.10;;;2.30;;
8230;SDS011;4156;50.908;6.974;2023-03-12T03:56:32;10.40;;;3.83;;
8230;SDS011;4156;50.908;6.974;2023-03-12T03:58:58;6.80;;;2.53;;
8230;SDS011;4156;50.908;6.974;2023-03-12T04:01:25;4.83;;;2.80;;
8230;SDS011;4156;50.908;6.974;2023-03-12T04:03:51;4.47;;;2.50;;
8230;SDS011;4156;50.908;6.974;2023-03-12T04:06:17;6.00;;;2.67;;
8230;SDS011;4156;50.908;6.974;2023-03-12T04:08:42;6.10;;;2.40;;
8230;SDS011;4156;50.908;6.974;2023-03-12T04:11:09;4.23;;;2.33;;
8230;SDS011;4156;50.908;6.974;2023-03-12T04:13:40;5.37;;;2.70;;
8230;SDS011;4156;50.908;6.974;2023-03-12T04:16:06;2.50;;;2.20;;
8230;SDS011;4156;50.908;6.974;2023-03-12T04:18:32;4.03;;;2.70;;
8230;SDS011;4156;50.908;6.974;2023-03-12T04:20:59;4.30;;;2.10;;
8230;SDS011;4156;50.908;6.974;2023-03-12T04:23:25;4.97;;;2.23;;
8230;SDS011;4156;50.908;6.974;2023-03-12T04:25:51;5.23;;;2.60;;
8230;SDS011;4156;50.908;6.974;2023-03-12T04:28:16;4.97;;;2.40;;
8230;SDS011;4156;50.908;6.974;2023-03-12T04:30:42;3.30;;;2.30;;
8230;SDS011;4156;50.908;6.974;2023-03-12T04:33:07;7.43;;;2.40;;
8230;SDS011;4156;50.908;6.974;2023-03-12T04:35:33;5.43;;;2.20;;
8230;SDS011;4156;50.908;6.974;2023-03-12T04:38:02;4.33;;;2.30;;
8230;SDS011;4156;50.908;6.974;2023-03-12T04:40:28;4.70;;;2.10;;
8230;SDS011;4156;50.908;6.974;2023-03-12T04:42:53;4.53;;;2.23;;
8230;SDS011;4156;50.908;6.974;2023-03-12T04:45:19;4.57;;;2.23;;
8230;SDS011;4156;50.908;6.974;2023-03-12T04:47:44;3.13;;;2.33;;
8230;SDS011;4156;50.908;6.974;2023-03-12T04:50:10;3.33;;;2.10;;
8230;SDS011;4156;50.908;6.974;2023-03-12T04:52:36;3.93;;;2.47;;
8230;SDS011;4156;50.908;6.974;2023-03-12T04:55:02;5.33;;;2.97;;
8230;SDS011;4156;50.908;6.974;2023-03-12T04:57:28;6.30;;;2.37;;
8230;SDS011;4156;50.908;6.974;2023-03-12T04:59:54;8.53;;;2.97;;
8230;SDS011;4156;50.908;6.974;2023-03-12T05:02:19;6.67;;;2.30;;
8230;SDS011;4156;50.908;6.974;2023-03-12T05:04:45;5.37;;;2.13;;
8230;SDS011;4156;50.908;6.974;2023-03-12T05:07:10;4.10;;;2.20;;
8230;SDS011;4156;50.908;6.974;2023-03-12T05:09:36;3.23;;;2.20;;
8230;SDS011;4156;50.908;6.974;2023-03-12T05:12:01;5.23;;;2.30;;
8230;SDS011;4156;50.908;6.974;2023-03-12T05:14:27;4.47;;;2.27;;
8230;SDS011;4156;50.908;6.974;2023-03-12T05:16:53;3.47;;;2.20;;
8230;SDS011;4156;50.908;6.974;2023-03-12T05:19:18;4.53;;;2.33;;
8230;SDS011;4156;50.908;6.974;2023-03-12T05:21:44;3.00;;;2.10;;
8230;SDS011;4156;50.908;6.974;2023-03-12T05:24:09;5.67;;;2.80;;
8230;SDS011;4156;50.908;6.974;2023-03-12T05:26:35;5.03;;;2.30;;
8230;SDS011;4156;50.908;6.974;2023-03-12T05:29:02;4.73;;;2.57;;
8230;SDS011;4156;50.908;6.974;2023-03-12T05:31:28;2.97;;;2.30;;
8230;SDS011;4156;50.908;6.974;2023-03-12T05:33:57;6.20;;;2.20;;
8230;SDS011;4156;50.908;6.974;2023-03-12T05:36:23;6.00;;;2.40;;
8230;SDS011;4156;50.908;6.974;2023-03-12T05:38:48;4.00;;;2.47;;
8230;SDS011;4156;50.908;6.974;2023-03-12T05:41:18;3.30;;;2.33;;
8230;SDS011;4156;50.908;6.974;2023-03-12T05:43:46;5.17;;;3.00;;
8230;SDS011;4156;50.908;6.974;2023-03-12T05:46:12;5.07;;;2.23;;
8230;SDS011;4156;50.908;6.974;2023-03-12T05:48:38;4.43;;;2.20;;
8230;SDS011;4156;50.908;6.974;2023-03-12T05:51:03;5.70;;;2.37;;
8230;SDS011;4156;50.908;6.974;2023-03-12T05:53:29;4.10;;;2.23;;
8230;SDS011;4156;50.908;6.974;2023-03-12T05:56:00;4.97;;;2.53;;
8230;SDS011;4156;50.908;6.974;2023-03-12T05:58:30;3.63;;;2.50;;
8230;SDS011;4156;50.908;6.974;2023-03-12T06:00:56;5.03;;;3.37;;
8230;SDS011;4156;50.908;6.974;2023-03-12T06:03:22;4.10;;;2.43;;
8230;SDS011;4156;50.908;6.974;2023-03-12T06:05:47;4.83;;;2.37;;
8230;SDS011;4156;50.908;6.974;2023-03-12T06:08:14;5.43;;;2.33;;
8230;SDS011;4156;50.908;6.974;2023-03-12T06:10:39;8.63;;;2.50;;
8230;SDS011;4156;50.908;6.974;2023-03-12T06:13:05;5.80;;;2.50;;
8230;SDS011;4156;50.908;6.974;2023-03-12T06:15:31;3.60;;;2.30;;
8230;SDS011;4156;50.908;6.974;2023-03-12T06:17:56;4.40;;;2.03;;
8230;SDS011;4156;50.908;6.974;2023-03-12T06:20:22;3.03;;;2.30;;
8230;SDS011;4156;50.908;6.974;2023-03-12T06:22:47;5.43;;;2.50;;
8230;SDS011;4156;50.908;6.974;2023-03-12T06:25:13;3.07;;;2.20;;
8230;SDS011;4156;50.908;6.974;2023-03-12T06:27:39;4.10;;;2.30;;
8230;SDS011;4156;50.908;6.974;2023-03-12T06:30:05;4.13;;;2.50;;
8230;SDS011;4156;50.908;6.974;2023-03-12T06:32:31;5.87;;;2.30;;
8230;SDS011;4156;50.908;6.974;2023-03-12T06:34:57;2.60;;;2.20;;
8230;SDS011;4156;50.908;6.974;2023-03-12T06:37:24;3.13;;;2.30;;
8230;SDS011;4156;50.908;6.974;2023-03-12T06:39:50;5.17;;;2.37;;
8230;SDS011;4156;50.908;6.974;2023-03-12T06:42:16;5.87;;;2.33;;
8230;SDS011;4156;50.908;6.974;2023-03-12T06:44:43;8.27;;;2.50;;
8230;SDS011;4156;50.908;6.974;2023-03-12T06:47:09;3.23;;;2.10;;
8230;SDS011;4156;50.908;6.974;2023-03-12T06:49:35;4.70;;;2.63;;
8230;SDS011;4156;50.908;6.974;2023-03-12T06:52:01;3.30;;;2.20;;
8230;SDS011;4156;50.908;6.974;2023-03-12T06:54:27;2.17;;;1.97;;
8230;SDS011;4156;50.908;6.974;2023-03-12T06:56:52;5.40;;;1.90;;
8230;SDS011;4156;50.908;6.974;2023-03-12T06:59:18;3.23;;;2.10;;
8230;SDS011;4156;50.908;6.974;2023-03-12T07:01:45;3.57;;;2.40;;
8230;SDS011;4156;50.908;6.974;2023-03-12T07:04:11;3.93;;;2.20;;
8230;SDS011;4156;50.908;6.974;2023-03-12T07:06:37;2.67;;;2.00;;
8230;SDS011;4156;50.908;6.974;2023-03-12T07:09:03;5.27;;;2.53;;
8230;SDS011;4156;50.908;6.974;2023-03-12T07:11:29;4.57;;;2.23;;
8230;SDS011;4156;50.908;6.974;2023-03-12T07:13:54;2.90;;;2.00;;
8230;SDS011;4156;50.908;6.974;2023-03-12T07:16:21;4.40;;;2.20;;
8230;SDS011;4156;50.908;6.974;2023-03-12T07:18:46;4.03;;;2.23;;
8230;SDS011;4156;50.908;6.974;2023-03-12T07:21:12;4.30;;;2.20;;
8230;SDS011;4156;50.908;6.974;2023-03-12T07:23:40;3.67;;;2.53;;
8230;SDS011;4156;50.908;6.974;2023-03-12T07:26:06;3.17;;;2.13;;
8230;SDS011;4156;50.908;6.974;2023-03-12T07:28:32;2.77;;;2.00;;
8230;SDS011;4156;50.908;6.974;2023-03-12T07:31:01;5.23;;;2.37;;
8230;SDS011;4156;50.908;6.974;2023-03-12T07:33:28;7.50;;;3.00;;
8230;SDS011;4156;50.908;6.974;2023-03-12T07:35:54;7.93;;;2.40;;
8230;SDS011;4156;50.908;6.974;2023-03-12T07:38:19;5.63;;;2.10;;
8230;SDS011;4156;50.908;6.974;2023-03-12T07:40:49;4.17;;;2.20;;
8230;SDS011;4156;50.908;6.974;2023-03-12T07:43:18;5.60;;;2.37;;
8230;SDS011;4156;50.908;6.974;2023-03-12T07:45:44;6.97;;;2.43;;
8230;SDS011;4156;50.908;6.974;2023-03-12T07:48:09;7.30;;;2.83;;
8230;SDS011;4156;50.908;6.974;2023-03-12T07:50:35;5.93;;;2.30;;
8230;SDS011;4156;50.908;6.974;2023-03-12T07:53:02;4.27;;;2.00;;
8230;SDS011;4156;50.908;6.974;2023-03-12T07:55:29;4.57;;;2.60;;
8230;SDS011;4156;50.908;6.974;2023-03-12T07:57:55;2.83;;;2.20;;
8230;SDS011;4156;50.908;6.974;2023-03-12T08:00:23;4.37;;;2.20;;
8230;SDS011;4156;50.908;6.974;2023-03-12T08:02:49;3.97;;;2.27;;
8230;SDS011;4156;50.908;6.974;2023-03-12T08:05:14;4.13;;;2.20;;
8230;SDS011;4156;50.908;6.974;2023-03-12T08:07:40;4.70;;;2.37;;
8230;SDS011;4156;50.908;6.974;2023-03-12T08:10:06;2.83;;;2.10;;
8230;SDS011;4156;50.908;6.974;2023-03-12T08:12:33;3.47;;;2.57;;
8230;SDS011;4156;50.908;6.974;2023-03-12T08:14:58;5.53;;;2.50;;
8230;SDS011;4156;50.908;6.974;2023-03-12T08:17:24;3.77;;;2.30;;
8230;SDS011;4156;50.908;6.974;2023-03-12T08:19:50;5.30;;;3.40;;
8230;SDS011;4156;50.908;6.974;2023-03-12T08:22:16;5.27;;;2.20;;
8230;SDS011;4156;50.908;6.974;2023-03-12T08:24:41;7.37;;;2.80;;
8230;SDS011;4156;50.908;6.974;2023-03-12T08:27:07;3.87;;;2.40;;
8230;SDS011;4156;50.908;6.974;2023-03-12T08:29:33;5.23;;;2.37;;
8230;SDS011;4156;50.908;6.974;2023-03-12T08:31:59;4.97;;;3.07;;
8230;SDS011;4156;50.908;6.974;2023-03-12T08:34:25;4.13;;;2.70;;
8230;SDS011;4156;50.908;6.974;2023-03-12T08:36:50;6.07;;;2.80;;
8230;SDS011;4156;50.908;6.974;2023-03-12T08:39:16;5.50;;;2.60;;
8230;SDS011;4156;50.908;6.974;2023-03-12T08:41:41;5.43;;;2.70;;
8230;SDS011;4156;50.908;6.974;2023-03-12T08:44:07;3.47;;;2.50;;
8230;SDS011;4156;50.908;6.974;2023-03-12T08:46:32;5.60;;;3.00;;
8230;SDS011;4156;50.908;6.974;2023-03-12T08:48:58;4.80;;;3.00;;
8230;SDS011;4156;50.908;6.974;2023-03-12T08:51:24;3.00;;;2.50;;
8230;SDS011;4156;50.908;6.974;2023-03-12T08:53:50;4.77;;;2.60;;
8230;SDS011;4156;50.908;6.974;2023-03-12T08:56:15;7.27;;;2.87;;
8230;SDS011;4156;50.908;6.974;2023-03-12T08:58:41;5.47;;;3.20;;
8230;SDS011;4156;50.908;6.974;2023-03-12T09:01:07;4.77;;;2.90;;
8230;SDS011;4156;50.908;6.974;2023-03-12T09:03:34;5.57;;;2.50;;
8230;SDS011;4156;50.908;6.974;2023-03-12T09:08:30;5.13;;;3.30;;
8230;SDS011;4156;50.908;6.974;2023-03-12T09:10:58;6.27;;;3.23;;
8230;SDS011;4156;50.908;6.974;2023-03-12T09:13:25;6.63;;;3.23;;
8230;SDS011;4156;50.908;6.974;2023-03-12T09:15:50;4.30;;;3.10;;
8230;SDS011;4156;50.908;6.974;2023-03-12T09:18:16;5.43;;;3.10;;
8230;SDS011;4156;50.908;6.974;2023-03-12T09:20:44;9.57;;;3.50;;
8230;SDS011;4156;50.908;6.974;2023-03-12T09:23:09;5.90;;;3.13;;
8230;SDS011;4156;50.908;6.974;2023-03-12T09:25:35;4.90;;;3.50;;
8230;SDS011;4156;50.908;6.974;2023-03-12T09:28:00;6.17;;;3.40;;
8230;SDS011;4156;50.908;6.974;2023-03-12T09:30:26;7.00;;;3.40;;
8230;SDS011;4156;50.908;6.974;2023-03-12T09:32:54;4.63;;;3.03;;
8230;SDS011;4156;50.908;6.974;2023-03-12T09:35:19;7.00;;;3.50;;
8230;SDS011;4156;50.908;6.974;2023-03-12T09:37:46;6.50;;;3.27;;
8230;SDS011;4156;50.908;6.974;2023-03-12T09:40:15;4.27;;;3.40;;
8230;SDS011;4156;50.908;6.974;2023-03-12T09:42:50;5.57;;;3.90;;
8230;SDS011;4156;50.908;6.974;2023-03-12T09:45:20;5.77;;;3.40;;
8230;SDS011;4156;50.908;6.974;2023-03-12T09:47:52;4.17;;;2.97;;
8230;SDS011;4156;50.908;6.974;2023-03-12T09:50:27;7.27;;;3.73;;
8230;SDS011;4156;50.908;6.974;2023-03-12T09:53:03;6.10;;;3.70;;
8230;SDS011;4156;50.908;6.974;2023-03-12T09:55:38;6.10;;;3.73;;
8230;SDS011;4156;50.908;6.974;2023-03-12T09:58:38;4.00;;;3.30;;
8230;SDS011;4156;50.908;6.974;2023-03-12T10:01:06;6.33;;;3.83;;
8230;SDS011;4156;50.908;6.974;2023-03-12T10:04:02;5.67;;;4.07;;
8230;SDS011;4156;50.908;6.974;2023-03-12T10:12:35;6.23;;;3.87;;
8230;SDS011;4156;50.908;6.974;2023-03-12T10:21:24;5.83;;;3.50;;
8230;SDS011;4156;50.908;6.974;2023-03-12T10:24:29;5.93;;;4.30;;
8230;SDS011;4156;50.908;6.974;2023-03-12T10:27:12;5.03;;;3.80;;
8230;SDS011;4156;50.908;6.974;2023-03-12T10:29:40;8.97;;;4.03;;
8230;SDS011;4156;50.908;6.974;2023-03-12T10:34:51;5.23;;;3.90;;
8230;SDS011;4156;50.908;6.974;2023-03-12T10:37:22;8.33;;;4.03;;
8230;SDS011;4156;50.908;6.974;2023-03-12T10:39:53;8.03;;;4.33;;
8230;SDS011;4156;50.908;6.974;2023-03-12T10:42:21;6.50;;;3.73;;
8230;SDS011;4156;50.908;6.974;2023-03-12T10:44:50;5.57;;;4.10;;
8230;SDS011;4156;50.908;6.974;2023-03-12T10:47:37;5.43;;;3.97;;
8230;SDS011;4156;50.908;6.974;2023-03-12T10:50:14;5.20;;;4.27;;
8230;SDS011;4156;50.908;6.974;2023-03-12T10:52:44;6.83;;;4.40;;
8230;SDS011;4156;50.908;6.974;2023-03-12T10:57:50;6.27;;;4.10;;
8230;SDS011;4156;50.908;6.974;2023-03-12T11:00:21;7.20;;;4.40;;
8230;SDS011;4156;50.908;6.974;2023-03-12T11:02:59;6.77;;;4.80;;
8230;SDS011;4156;50.908;6.974;2023-03-12T11:05:28;5.47;;;4.30;;
8230;SDS011;4156;50.908;6.974;2023-03-12T11:08:18;4.77;;;3.90;;
8230;SDS011;4156;50.908;6.974;2023-03-12T11:10:51;6.60;;;4.70;;
8230;SDS011;4156;50.908;6.974;2023-03-12T11:15:54;7.00;;;4.50;;
8230;SDS011;4156;50.908;6.974;2023-03-12T11:20:57;6.27;;;4.43;;
8230;SDS011;4156;50.908;6.974;2023-03-12T11:23:42;5.93;;;4.20;;
8230;SDS011;4156;50.908;6.974;2023-03-12T11:26:19;8.23;;;4.90;;
8230;SDS011;4156;50.908;6.974;2023-03-12T11:28:47;7.20;;;4.40;;
8230;SDS011;4156;50.908;6.974;2023-03-12T11:31:19;5.73;;;4.43;;
8230;SDS011;4156;50.908;6.974;2023-03-12T11:33:48;8.37;;;5.13;;
8230;SDS011;4156;50.908;6.974;2023-03-12T11:36:20;7.97;;;4.40;;
8230;SDS011;4156;50.908;6.974;2023-03-12T11:39:12;6.83;;;4.67;;
8230;SDS011;4156;50.908;6.974;2023-03-12T11:41:48;5.57;;;4.43;;
8230;SDS011;4156;50.908;6.974;2023-03-12T11:44:23;8.03;;;4.70;;
8230;SDS011;4156;50.908;6.974;2023-03-12T11:53:09;5.27;;;3.93;;
8230;SDS011;4156;50.908;6.974;2023-03-12T11:56:01;9.37;;;4.80;;
8230;SDS011;4156;50.908;6.974;2023-03-12T11:58:54;8.97;;;5.00;;
8230;SDS011;4156;50.908;6.974;2023-03-12T12:04:31;6.03;;;4.43;;
8230;SDS011;4156;50.908;6.974;2023-03-12T12:07:16;6.70;;;5.03;;
8230;SDS011;4156;50.908;6.974;2023-03-12T12:09:46;7.53;;;5.90;;
8230;SDS011;4156;50.908;6.974;2023-03-12T12:12:46;10.30;;;5.37;;
8230;SDS011;4156;50.908;6.974;2023-03-12T12:15:25;8.27;;;4.83;;
8230;SDS011;4156;50.908;6.974;2023-03-12T12:18:08;10.97;;;5.23;;
8230;SDS011;4156;50.908;6.974;2023-03-12T12:20:47;9.30;;;4.87;;
8230;SDS011;4156;50.908;6.974;2023-03-12T12:23:21;9.23;;;5.23;;
8230;SDS011;4156;50.908;6.974;2023-03-12T12:25:58;11.27;;;5.47;;
8230;SDS011;4156;50.908;6.974;2023-03-12T12:31:34;12.53;;;5.53;;
8230;SDS011;4156;50.908;6.974;2023-03-12T12:40:06;16.33;;;4.87;;
8230;SDS011;4156;50.908;6.974;2023-03-12T12:42:55;12.83;;;5.03;;
8230;SDS011;4156;50.908;6.974;2023-03-12T12:45:29;12.27;;;6.03;;
8230;SDS011;4156;50.908;6.974;2023-03-12T12:48:29;11.03;;;5.30;;
8230;SDS011;4156;50.908;6.974;2023-03-12T12:51:07;9.70;;;5.33;;
8230;SDS011;4156;50.908;6.974;2023-03-12T12:56:22;14.07;;;4.90;;
8230;SDS011;4156;50.908;6.974;2023-03-12T13:01:48;11.23;;;4.17;;
8230;SDS011;4156;50.908;6.974;2023-03-12T13:04:29;10.70;;;4.27;;
8230;SDS011;4156;50.908;6.974;2023-03-12T13:09:37;11.00;;;3.60;;
8230;SDS011;4156;50.908;6.974;2023-03-12T13:14:57;11.57;;;4.27;;
8230;SDS011;4156;50.908;6.974;2023-03-12T13:20:17;13.60;;;3.40;;
8230;SDS011;4156;50.908;6.974;2023-03-12T13:23:08;8.73;;;3.47;;
8230;SDS011;4156;50.908;6.974;2023-03-12T13:25:59;7.80;;;3.40;;
8230;SDS011;4156;50.908;6.974;2023-03-12T13:33:52;16.77;;;4.07;;
8230;SDS011;4156;50.908;6.974;2023-03-12T13:36:22;13.20;;;3.77;;
8230;SDS011;4156;50.908;6.974;2023-03-12T13:46:48;12.47;;;3.27;;
8230;SDS011;4156;50.908;6.974;2023-03-12T13:49:22;7.00;;;3.07;;
8230;SDS011;4156;50.908;6.974;2023-03-12T13:52:00;13.70;;;3.37;;
8230;SDS011;4156;50.908;6.974;2023-03-12T13:54:39;15.77;;;3.30;;
8230;SDS011;4156;50.908;6.974;2023-03-12T13:57:11;10.23;;;3.20;;
8230;SDS011;4156;50.908;6.974;2023-03-12T13:59:53;12.73;;;3.47;;
8230;SDS011;4156;50.908;6.974;2023-03-12T14:02:22;10.07;;;3.30;;
8230;SDS011;4156;50.908;6.974;2023-03-12T14:04:53;14.33;;;4.20;;
8230;SDS011;4156;50.908;6.974;2023-03-12T14:12:58;10.80;;;3.27;;
8230;SDS011;4156;50.908;6.974;2023-03-12T14:15:39;13.50;;;3.87;;
8230;SDS011;4156;50.908;6.974;2023-03-12T14:18:26;14.23;;;3.10;;
8230;SDS011;4156;50.908;6.974;2023-03-12T14:20:58;15.10;;;4.07;;
8230;SDS011;4156;50.908;6.974;2023-03-12T14:23:27;14.37;;;3.57;;
8230;SDS011;4156;50.908;6.974;2023-03-12T14:25:58;10.77;;;3.50;;
8230;SDS011;4156;50.908;6.974;2023-03-12T14:28:25;14.57;;;2.93;;
8230;SDS011;4156;50.908;6.974;2023-03-12T14:30:58;13.03;;;4.00;;
8230;SDS011;4156;50.908;6.974;2023-03-12T14:33:25;14.00;;;3.97;;
8230;SDS011;4156;50.908;6.974;2023-03-12T14:35:57;14.17;;;3.90;;
8230;SDS011;4156;50.908;6.974;2023-03-12T14:38:33;12.43;;;4.37;;
8230;SDS011;4156;50.908;6.974;2023-03-12T14:43:39;11.50;;;4.17;;
8230;SDS011;4156;50.908;6.974;2023-03-12T14:46:44;9.63;;;3.83;;
8230;SDS011;4156;50.908;6.974;2023-03-12T14:48:58;16.33;;;5.33;;
8230;SDS011;4156;50.908;6.974;2023-03-12T14:51:28;12.53;;;4.37;;
8230;SDS011;4156;50.908;6.974;2023-03-12T14:54:01;16.10;;;4.43;;
8230;SDS011;4156;50.908;6.974;2023-03-12T14:56:29;16.67;;;3.87;;
8230;SDS011;4156;50.908;6.974;2023-03-12T14:58:58;12.40;;;4.67;;
8230;SDS011;4156;50.908;6.974;2023-03-12T15:01:26;16.37;;;3.70;;
8230;SDS011;4156;50.908;6.974;2023-03-12T15:03:58;12.10;;;3.93;;
8230;SDS011;4156;50.908;6.974;2023-03-12T15:08:59;15.23;;;4.57;;
8230;SDS011;4156;50.908;6.974;2023-03-12T15:11:28;15.40;;;4.17;;
8230;SDS011;4156;50.908;6.974;2023-03-12T15:13:55;10.83;;;3.63;;
8230;SDS011;4156;50.908;6.974;2023-03-12T15:16:27;13.27;;;3.70;;
8230;SDS011;4156;50.908;6.974;2023-03-12T15:18:52;9.00;;;4.40;;
8230;SDS011;4156;50.908;6.974;2023-03-12T15:21:18;10.20;;;3.10;;
8230;SDS011;4156;50.908;6.974;2023-03-12T15:23:45;11.80;;;3.60;;
8230;SDS011;4156;50.908;6.974;2023-03-12T15:28:40;10.37;;;2.90;;
8230;SDS011;4156;50.908;6.974;2023-03-12T15:31:10;11.37;;;3.40;;
8230;SDS011;4156;50.908;6.974;2023-03-12T15:33:39;12.13;;;3.83;;
8230;SDS011;4156;50.908;6.974;2023-03-12T15:36:19;18.53;;;4.30;;
8230;SDS011;4156;50.908;6.974;2023-03-12T15:38:56;9.40;;;3.27;;
8230;SDS011;4156;50.908;6.974;2023-03-12T15:41:40;11.30;;;4.10;;
8230;SDS011;4156;50.908;6.974;2023-03-12T15:44:24;15.63;;;4.43;;
8230;SDS011;4156;50.908;6.974;2023-03-12T15:46:53;14.80;;;4.37;;
8230;SDS011;4156;50.908;6.974;2023-03-12T15:49:26;12.17;;;4.60;;
8230;SDS011;4156;50.908;6.974;2023-03-12T15:51:59;9.57;;;4.77;;
8230;SDS011;4156;50.908;6.974;2023-03-12T15:54:38;11.63;;;4.00;;
8230;SDS011;4156;50.908;6.974;2023-03-12T15:57:22;15.73;;;4.10;;
8230;SDS011;4156;50.908;6.974;2023-03-12T15:59:49;18.90;;;4.93;;
8230;SDS011;4156;50.908;6.974;2023-03-12T16:02:34;13.13;;;3.60;;
8230;SDS011;4156;50.908;6.974;2023-03-12T16:05:01;20.40;;;4.50;;
8230;SDS011;4156;50.908;6.974;2023-03-12T16:07:26;17.80;;;3.67;;
8230;SDS011;4156;50.908;6.974;2023-03-12T16:09:52;15.03;;;4.23;;
8230;SDS011;4156;50.908;6.974;2023-03-12T16:12:17;14.87;;;3.77;;
8230;SDS011;4156;50.908;6.974;2023-03-12T16:14:43;13.73;;;4.57;;
8230;SDS011;4156;50.908;6.974;2023-03-12T16:17:11;11.77;;;3.73;;
8230;SDS011;4156;50.908;6.974;2023-03-12T16:19:38;14.87;;;3.67;;
8230;SDS011;4156;50.908;6.974;2023-03-12T16:22:03;10.30;;;3.40;;
8230;SDS011;4156;50.908;6.974;2023-03-12T16:24:29;11.67;;;3.37;;
8230;SDS011;4156;50.908;6.974;2023-03-12T16:26:57;11.03;;;3.20;;
8230;SDS011;4156;50.908;6.974;2023-03-12T16:29:34;13.90;;;3.17;;
8230;SDS011;4156;50.908;6.974;2023-03-12T16:32:00;9.87;;;3.33;;
8230;SDS011;4156;50.908;6.974;2023-03-12T16:34:27;18.27;;;4.03;;
8230;SDS011;4156;50.908;6.974;2023-03-12T16:36:53;16.17;;;5.13;;
8230;SDS011;4156;50.908;6.974;2023-03-12T16:39:18;13.27;;;4.00;;
8230;SDS011;4156;50.908;6.974;2023-03-12T16:41:44;15.30;;;3.77;;
8230;SDS011;4156;50.908;6.974;2023-03-12T16:44:14;14.93;;;3.43;;
8230;SDS011;4156;50.908;6.974;2023-03-12T16:46:44;14.60;;;3.60;;
8230;SDS011;4156;50.908;6.974;2023-03-12T16:49:14;15.10;;;3.47;;
8230;SDS011;4156;50.908;6.974;2023-03-12T16:51:41;17.90;;;3.57;;
8230;SDS011;4156;50.908;6.974;2023-03-12T16:54:07;9.73;;;3.30;;
8230;SDS011;4156;50.908;6.974;2023-03-12T16:56:32;17.13;;;5.17;;